createdAt,value
2022-11-24T06:09:27.904Z,96775.38
2022-11-24T06:11:56.218Z,96776.00
2022-11-24T06:14:24.405Z,96778.09
2022-11-24T06:16:52.200Z,96782.72
2022-11-24T06:19:19.838Z,96800.38
2022-11-24T06:21:47.714Z,96796.84
2022-11-24T06:24:15.395Z,96794.94
2022-11-24T06:26:43.268Z,96806.03
2022-11-24T06:29:10.913Z,96803.06
2022-11-24T06:31:38.749Z,96806.16
2022-11-24T06:34:07.780Z,96809.28
2022-11-24T06:36:35.488Z,96801.34
2022-11-24T06:39:03.325Z,96805.84
2022-11-24T06:41:30.987Z,96794.72
2022-11-24T06:43:58.577Z,96795.31
2022-11-24T06:46:26.328Z,96785.28
2022-11-24T06:48:54.064Z,96785.44
2022-11-24T06:51:21.795Z,96780.66
2022-11-24T06:53:49.519Z,96791.28
2022-11-24T06:56:18.988Z,96805.06
2022-11-24T06:58:48.831Z,96828.47
2022-11-24T07:01:27.191Z,96831.06
2022-11-24T07:03:55.758Z,96831.56
2022-11-24T07:06:24.113Z,96828.88
2022-11-24T07:08:52.041Z,96831.53
2022-11-24T07:11:21.952Z,96836.72
2022-11-24T07:13:56.520Z,96834.00
2022-11-24T07:16:27.481Z,96835.63
2022-11-24T07:18:55.489Z,96833.41
2022-11-24T07:21:23.939Z,96830.38
2022-11-24T07:23:55.509Z,96841.72
2022-11-24T07:26:23.538Z,96834.16
2022-11-24T07:28:51.503Z,96835.53
2022-11-24T07:31:21.139Z,96835.97
2022-11-24T07:33:53.219Z,96836.84
2022-11-24T07:36:21.555Z,96840.53
2022-11-24T07:38:49.214Z,96833.47
2022-11-24T07:41:18.402Z,96834.56
2022-11-24T07:43:46.238Z,96840.38
2022-11-24T07:46:15.217Z,96843.50
2022-11-24T07:48:42.884Z,96851.75
2022-11-24T07:51:10.666Z,96858.81
2022-11-24T07:53:38.717Z,96859.13
2022-11-24T07:56:07.829Z,96850.34
2022-11-24T07:58:36.742Z,96846.63
2022-11-24T08:01:16.091Z,96839.38
2022-11-24T08:03:44.189Z,96848.66
2022-11-24T08:06:32.584Z,96840.75
2022-11-24T08:09:00.097Z,96838.56
2022-11-24T08:11:27.787Z,96847.94
2022-11-24T08:13:55.855Z,96843.66
2022-11-24T08:16:23.675Z,96848.84
2022-11-24T08:18:53.171Z,96852.41
2022-11-24T08:21:20.812Z,96863.22
2022-11-24T08:23:48.513Z,96865.38
2022-11-24T08:26:18.068Z,96865.81
2022-11-24T08:28:46.342Z,96864.38
2022-11-24T08:31:16.090Z,96863.56
2022-11-24T08:33:43.792Z,96871.16
2022-11-24T08:36:13.467Z,96872.41
2022-11-24T08:38:41.376Z,96864.75
2022-11-24T08:41:10.993Z,96859.81
2022-11-24T08:43:38.850Z,96867.13
2022-11-24T08:46:11.340Z,96875.03
2022-11-24T08:48:39.129Z,96881.72
2022-11-24T08:51:08.628Z,96877.69
2022-11-24T08:53:36.702Z,96872.34
2022-11-24T08:56:04.616Z,96885.41
2022-11-24T08:58:32.470Z,96892.31
2022-11-24T09:01:14.358Z,96887.69
2022-11-24T09:03:48.550Z,96890.16
2022-11-24T09:06:25.918Z,96890.81
2022-11-24T09:08:53.992Z,96886.72
2022-11-24T09:11:21.868Z,96885.56
2022-11-24T09:13:49.842Z,96887.41
2022-11-24T09:16:22.398Z,96874.88
2022-11-24T09:18:58.042Z,96883.22
2022-11-24T09:21:25.985Z,96882.16
2022-11-24T09:23:54.019Z,96873.75
2022-11-24T09:26:22.966Z,96880.50
2022-11-24T09:28:54.480Z,96887.66
2022-11-24T09:31:36.225Z,96886.75
2022-11-24T09:34:05.070Z,96889.69
2022-11-24T09:36:32.899Z,96892.22
2022-11-24T09:39:00.747Z,96903.22
2022-11-24T09:42:02.685Z,96892.09
2022-11-24T09:44:55.525Z,96892.09
2022-11-24T09:47:54.131Z,96892.06
2022-11-24T09:50:25.474Z,96892.31
2022-11-24T09:53:20.055Z,96885.41
2022-11-24T09:55:52.058Z,96889.47
2022-11-24T09:58:45.930Z,96892.56
2022-11-24T10:01:28.722Z,96893.38
2022-11-24T10:03:59.854Z,96896.94
2022-11-24T10:07:13.483Z,96907.34
2022-11-24T10:10:05.794Z,96905.56
2022-11-24T10:13:01.611Z,96898.88
2022-11-24T10:15:45.172Z,96900.78
2022-11-24T10:18:16.784Z,96893.31
2022-11-24T10:21:03.136Z,96899.19
2022-11-24T10:23:47.023Z,96895.13
2022-11-24T10:26:31.569Z,96896.84
2022-11-24T10:28:59.269Z,96893.63
2022-11-24T10:31:37.707Z,96902.41
2022-11-24T10:34:19.361Z,96897.53
2022-11-24T10:37:11.865Z,96891.97
2022-11-24T10:39:46.832Z,96890.31
2022-11-24T10:42:20.715Z,96901.69
2022-11-24T10:44:48.418Z,96894.28
2022-11-24T10:47:20.252Z,96900.16
2022-11-24T10:49:55.159Z,96906.00
2022-11-24T10:52:22.868Z,96897.94
2022-11-24T10:54:54.680Z,96893.91
2022-11-24T10:57:33.671Z,96884.22
2022-11-24T11:00:02.517Z,96887.06
2022-11-24T11:02:36.904Z,96882.97
2022-11-24T11:05:26.513Z,96883.78
2022-11-24T11:08:29.456Z,96881.38
2022-11-24T11:11:15.034Z,96890.69
2022-11-24T11:14:03.118Z,96886.63
2022-11-24T11:16:53.249Z,96889.66
2022-11-24T11:19:51.821Z,96887.47
2022-11-24T11:22:29.116Z,96888.69
2022-11-24T11:25:10.419Z,96891.91
2022-11-24T11:27:38.694Z,96884.41
2022-11-24T11:36:13.005Z,96889.25
2022-11-24T11:38:40.925Z,96889.25
2022-11-24T11:41:14.177Z,96889.47
2022-11-24T11:43:41.886Z,96894.13
2022-11-24T11:46:13.971Z,96894.34
2022-11-24T11:48:44.907Z,96896.97
2022-11-24T11:51:24.356Z,96896.38
2022-11-24T11:54:16.358Z,96894.94
2022-11-24T11:56:45.431Z,96897.97
2022-11-24T11:59:41.477Z,96886.66
2022-11-24T12:02:33.425Z,96885.81
2022-11-24T12:05:06.481Z,96889.44
2022-11-24T12:07:58.547Z,96884.59
2022-11-24T12:10:46.642Z,96872.69
2022-11-24T12:13:32.247Z,96871.28
2022-11-24T12:16:08.833Z,96878.97
2022-11-24T12:19:14.714Z,96874.91
2022-11-24T12:21:45.548Z,96881.78
2022-11-24T12:24:19.360Z,96874.09
2022-11-24T12:27:00.173Z,96892.88
2022-11-24T12:29:49.237Z,96892.31
2022-11-24T12:32:30.138Z,96891.50
2022-11-24T12:35:14.521Z,96890.28
2022-11-24T12:38:01.969Z,96893.53
2022-11-24T12:40:45.270Z,96887.25
2022-11-24T12:43:33.804Z,96891.28
2022-11-24T12:46:14.050Z,96884.22
2022-11-24T12:48:57.632Z,96879.97
2022-11-24T12:51:31.729Z,96885.44
2022-11-24T12:53:59.791Z,96878.16
2022-11-24T12:56:49.229Z,96879.78
2022-11-24T12:59:45.748Z,96882.81
2022-11-24T13:02:41.477Z,96883.81
2022-11-24T13:05:15.309Z,96885.84
2022-11-24T13:07:47.758Z,96885.84
2022-11-24T13:10:46.482Z,96881.78
2022-11-24T13:13:13.465Z,96886.63
2022-11-24T13:16:07.027Z,96885.44
2022-11-24T13:18:54.004Z,96894.94
2022-11-24T13:21:52.880Z,96895.53
2022-11-24T13:24:24.521Z,96884.63
2022-11-24T13:26:54.524Z,96892.69
2022-11-24T13:29:28.387Z,96884.38
2022-11-24T13:32:05.087Z,96898.13
2022-11-24T13:34:45.912Z,96905.97
2022-11-24T13:37:32.043Z,96900.66
2022-11-24T13:40:12.366Z,96898.81
2022-11-24T13:42:56.204Z,96901.38
2022-11-24T13:45:39.006Z,96894.72
2022-11-24T13:48:22.817Z,96891.63
2022-11-24T13:50:51.110Z,96901.34
2022-11-24T13:53:21.931Z,96910.81
2022-11-24T13:55:57.685Z,96905.06
2022-11-24T13:58:37.853Z,96920.59
2022-11-24T14:01:25.299Z,96935.69
2022-11-24T14:06:56.183Z,96933.78
2022-11-24T14:09:36.149Z,96931.94
2022-11-24T14:12:15.877Z,96932.75
2022-11-24T14:14:44.602Z,96930.88
2022-11-24T14:17:15.339Z,96945.13
2022-11-24T14:19:44.759Z,96942.06
2022-11-24T14:22:20.080Z,96945.25
2022-11-24T14:24:56.027Z,96947.75
2022-11-24T14:27:29.639Z,96942.69
2022-11-24T14:30:21.306Z,96955.56
2022-11-24T14:33:02.454Z,96954.84
2022-11-24T14:35:31.732Z,96945.56
2022-11-24T14:38:01.538Z,96948.94
2022-11-24T14:40:48.857Z,96947.63
2022-11-24T14:43:32.117Z,96953.16
2022-11-24T14:46:09.451Z,96952.09
2022-11-24T14:48:37.681Z,96952.41
2022-11-24T14:51:06.901Z,96954.50
2022-11-24T14:53:35.191Z,96958.22
2022-11-24T14:56:32.558Z,96956.69
2022-11-24T14:59:00.217Z,96961.50
2022-11-24T15:01:27.913Z,96961.78
2022-11-24T15:07:24.198Z,96972.44
2022-11-24T15:09:58.180Z,96969.34
2022-11-24T15:12:34.481Z,96971.44
2022-11-24T15:15:21.396Z,96976.88
2022-11-24T15:18:18.754Z,96984.25
2022-11-24T15:20:46.485Z,96982.41
2022-11-24T15:23:13.976Z,96983.56
2022-11-24T15:25:42.222Z,96989.75
2022-11-24T15:28:09.835Z,96989.47
2022-11-24T15:30:37.887Z,97001.03
2022-11-24T15:33:17.210Z,97003.69
2022-11-24T15:35:45.537Z,97019.13
2022-11-24T15:38:13.501Z,97020.00
2022-11-24T15:40:43.201Z,97016.59
2022-11-24T15:43:27.819Z,97021.00
2022-11-24T15:45:55.586Z,97023.59
2022-11-24T15:48:23.531Z,97021.81
2022-11-24T15:50:52.282Z,97016.09
2022-11-24T15:53:20.300Z,97020.81
2022-11-24T15:55:48.411Z,97018.91
2022-11-24T15:58:16.234Z,97025.50
2022-11-24T16:00:44.257Z,97031.16
2022-11-24T16:03:44.952Z,97029.41
2022-11-24T16:06:00.048Z,97039.06
2022-11-24T16:08:28.045Z,97045.28
2022-11-24T16:10:56.242Z,97054.94
2022-11-24T16:13:24.283Z,97056.41
2022-11-24T16:15:52.031Z,97053.13
2022-11-24T16:18:20.120Z,97054.63
2022-11-24T16:20:48.070Z,97055.78
2022-11-24T16:23:15.822Z,97053.53
2022-11-24T16:25:43.851Z,97057.41
2022-11-24T16:28:11.532Z,97068.03
